createdAt,value
2022-07-28T00:00:17.659Z,99.90
2022-07-28T00:02:45.691Z,99.90
2022-07-28T00:05:13.661Z,99.90
2022-07-28T00:07:42.267Z,99.90
2022-07-28T00:10:11.973Z,99.90
2022-07-28T00:12:40.240Z,99.90
2022-07-28T00:15:08.885Z,99.90
2022-07-28T00:17:36.689Z,99.90
2022-07-28T00:20:06.245Z,99.90
2022-07-28T00:22:34.173Z,99.90
2022-07-28T00:25:01.926Z,99.90
2022-07-28T00:27:31.044Z,99.90
2022-07-28T00:29:58.870Z,99.90
2022-07-28T00:32:26.643Z,99.90
2022-07-28T00:34:54.512Z,99.90
2022-07-28T00:37:22.300Z,99.90
2022-07-28T00:39:50.077Z,99.90
2022-07-28T00:42:19.624Z,99.90
2022-07-28T00:44:49.011Z,99.90
2022-07-28T00:47:16.750Z,99.90
2022-07-28T00:49:46.214Z,99.90
2022-07-28T00:52:14.591Z,99.90
2022-07-28T00:54:42.514Z,99.90
2022-07-28T00:57:10.364Z,99.90
2022-07-28T00:59:38.158Z,99.90
2022-07-28T01:02:07.859Z,99.90
2022-07-28T01:04:36.079Z,99.90
2022-07-28T01:07:19.995Z,99.90
2022-07-28T01:09:57.858Z,99.90
2022-07-28T01:12:43.175Z,99.90
2022-07-28T01:15:24.772Z,99.90
2022-07-28T01:18:01.637Z,99.90
2022-07-28T01:20:35.054Z,99.90
2022-07-28T01:23:28.545Z,99.90
2022-07-28T01:26:14.800Z,99.90
2022-07-28T01:29:03.194Z,99.90
2022-07-28T01:31:40.459Z,99.90
2022-07-28T01:34:11.792Z,99.90
2022-07-28T01:36:44.001Z,99.90
2022-07-28T01:39:12.527Z,99.90
2022-07-28T01:41:42.781Z,99.90
2022-07-28T01:44:15.840Z,99.90
2022-07-28T01:46:47.390Z,99.90
2022-07-28T01:49:16.690Z,99.90
2022-07-28T01:51:45.919Z,99.90
2022-07-28T01:54:15.422Z,99.90
2022-07-28T01:56:45.114Z,99.90
2022-07-28T01:59:14.221Z,99.90
2022-07-28T02:01:46.609Z,99.90
2022-07-28T02:04:16.658Z,99.90
2022-07-28T02:06:46.275Z,99.90
2022-07-28T02:09:14.683Z,99.90
2022-07-28T02:11:43.135Z,99.90
2022-07-28T02:14:15.020Z,99.90
2022-07-28T02:22:06.117Z,99.90
2022-07-28T02:24:35.699Z,99.90
2022-07-28T02:27:09.681Z,99.90
2022-07-28T02:29:51.988Z,99.90
2022-07-28T02:32:28.502Z,99.90
2022-07-28T02:35:01.924Z,99.90
2022-07-28T02:37:36.103Z,99.90
2022-07-28T02:40:05.421Z,99.90
2022-07-28T02:42:36.491Z,99.90
2022-07-28T02:45:06.998Z,99.90
2022-07-28T02:47:42.320Z,99.90
2022-07-28T02:50:13.041Z,99.90
2022-07-28T02:52:44.263Z,99.90
2022-07-28T02:55:15.546Z,99.90
2022-07-28T02:57:45.353Z,99.90
2022-07-28T03:00:15.464Z,99.90
2022-07-28T03:02:46.785Z,99.90
2022-07-28T03:05:15.935Z,99.90
2022-07-28T03:07:51.285Z,99.90
2022-07-28T03:10:32.779Z,99.90
2022-07-28T03:13:07.146Z,99.90
2022-07-28T03:15:35.844Z,99.90
2022-07-28T03:18:05.458Z,99.90
2022-07-28T03:20:34.042Z,99.90
2022-07-28T03:23:04.240Z,99.90
2022-07-28T03:25:40.324Z,99.90
2022-07-28T03:28:11.477Z,99.90
2022-07-28T03:30:46.511Z,99.90
2022-07-28T03:33:14.640Z,99.90
2022-07-28T03:35:48.676Z,99.90
2022-07-28T03:38:23.201Z,99.90
2022-07-28T03:40:53.189Z,99.90
2022-07-28T03:43:24.711Z,99.90
2022-07-28T03:45:52.962Z,99.90
2022-07-28T03:48:23.488Z,99.90
2022-07-28T03:50:51.778Z,99.90
2022-07-28T03:53:25.188Z,99.90
2022-07-28T03:55:53.829Z,99.90
2022-07-28T03:58:26.197Z,99.90
2022-07-28T04:00:56.935Z,99.90
2022-07-28T04:03:36.476Z,99.90
2022-07-28T04:06:11.393Z,99.90
2022-07-28T04:08:40.782Z,99.90
2022-07-28T04:11:08.894Z,99.90
2022-07-28T04:13:37.408Z,99.90
2022-07-28T04:16:07.287Z,99.90
2022-07-28T04:18:35.736Z,99.90
2022-07-28T04:21:04.365Z,99.90
2022-07-28T04:23:39.794Z,99.90
2022-07-28T04:26:07.930Z,99.90
2022-07-28T04:28:35.877Z,99.90
2022-07-28T04:31:03.847Z,99.90
2022-07-28T04:33:31.887Z,99.90
2022-07-28T04:36:00.812Z,99.90
2022-07-28T04:38:28.753Z,99.90
2022-07-28T04:41:01.300Z,99.90
2022-07-28T04:43:29.253Z,99.90
2022-07-28T04:45:58.488Z,99.90
2022-07-28T04:48:26.451Z,99.90
2022-07-28T04:50:54.353Z,99.90
2022-07-28T04:53:23.349Z,99.90
2022-07-28T04:55:55.280Z,99.90
2022-07-28T04:58:24.710Z,99.90
2022-07-28T05:00:53.556Z,99.90
2022-07-28T05:03:21.878Z,99.90
2022-07-28T05:05:54.829Z,99.90
2022-07-28T05:08:25.692Z,99.90
2022-07-28T05:10:55.463Z,99.90
2022-07-28T05:13:28.968Z,99.90
2022-07-28T05:16:01.334Z,99.90
2022-07-28T05:18:29.153Z,99.90
2022-07-28T05:20:56.933Z,99.90
2022-07-28T05:23:24.937Z,99.90
2022-07-28T05:25:52.917Z,99.90
2022-07-28T05:28:20.808Z,99.90
2022-07-28T05:30:50.181Z,99.90
2022-07-28T05:33:18.411Z,99.90
2022-07-28T05:35:53.273Z,99.90
2022-07-28T05:38:21.797Z,99.90
2022-07-28T05:40:49.645Z,99.90
2022-07-28T05:43:18.268Z,99.90
2022-07-28T05:45:49.472Z,99.90
2022-07-28T05:48:18.833Z,99.90
2022-07-28T05:50:47.273Z,99.90
2022-07-28T05:53:17.991Z,99.90
2022-07-28T05:55:57.774Z,99.90
2022-07-28T05:58:30.569Z,99.90
2022-07-28T06:01:02.019Z,99.90
2022-07-28T06:03:39.798Z,99.90
2022-07-28T06:06:16.022Z,99.90
2022-07-28T06:08:46.349Z,99.90
2022-07-28T06:11:22.197Z,99.90
2022-07-28T06:13:51.906Z,99.90
2022-07-28T06:16:22.942Z,99.90
2022-07-28T06:18:51.891Z,99.90
2022-07-28T06:21:19.830Z,99.90
2022-07-28T06:23:48.046Z,99.90
2022-07-28T06:26:16.432Z,99.90
2022-07-28T06:28:44.439Z,99.90
2022-07-28T06:31:12.463Z,99.90
2022-07-28T06:33:43.026Z,99.90
2022-07-28T06:36:11.131Z,99.90
2022-07-28T06:38:41.317Z,99.90
2022-07-28T06:41:14.204Z,99.90
2022-07-28T06:43:42.223Z,99.90
2022-07-28T06:46:10.493Z,99.90
2022-07-28T06:48:39.467Z,99.90
2022-07-28T06:51:09.220Z,99.90
2022-07-28T06:53:37.325Z,99.90
2022-07-28T06:56:06.410Z,99.90
2022-07-28T06:58:35.587Z,99.90
2022-07-28T07:01:07.566Z,99.90
2022-07-28T07:03:35.974Z,99.90
2022-07-28T07:06:03.974Z,99.90
2022-07-28T07:08:36.066Z,99.90
2022-07-28T07:11:04.184Z,99.90
2022-07-28T07:13:33.833Z,99.90
2022-07-28T07:16:01.939Z,99.90
2022-07-28T07:18:31.857Z,99.90
2022-07-28T07:20:59.979Z,99.90
2022-07-28T07:23:31.098Z,99.90
2022-07-28T07:26:00.383Z,99.90
2022-07-28T07:28:28.407Z,99.90
2022-07-28T07:30:56.528Z,99.90
2022-07-28T07:33:24.527Z,99.90
2022-07-28T07:35:52.701Z,99.90
2022-07-28T07:38:23.151Z,99.90
2022-07-28T07:40:54.539Z,99.90
2022-07-28T07:43:24.306Z,99.90
2022-07-28T07:45:52.420Z,99.90
2022-07-28T07:48:20.461Z,99.90
2022-07-28T07:50:53.626Z,99.90
2022-07-28T07:53:22.892Z,99.90
2022-07-28T07:55:51.101Z,99.90
2022-07-28T07:58:19.094Z,99.90
2022-07-28T08:00:48.568Z,99.90
2022-07-28T08:03:17.449Z,99.90
2022-07-28T08:05:56.479Z,99.90
2022-07-28T08:08:25.684Z,99.90
2022-07-28T08:10:54.722Z,99.90
2022-07-28T08:13:23.261Z,99.90
2022-07-28T08:15:52.872Z,99.90
2022-07-28T08:18:21.368Z,99.90
2022-07-28T08:20:51.608Z,99.90
2022-07-28T08:23:26.164Z,99.90
2022-07-28T08:25:54.722Z,99.90
2022-07-28T08:28:23.001Z,99.90
2022-07-28T08:30:55.916Z,99.90
2022-07-28T08:33:24.044Z,99.90
2022-07-28T08:35:53.854Z,99.90
2022-07-28T08:38:22.341Z,99.90
2022-07-28T08:40:52.816Z,99.90
2022-07-28T08:43:29.559Z,99.90
2022-07-28T08:46:03.486Z,99.90
2022-07-28T08:48:33.558Z,99.90
2022-07-28T08:51:07.013Z,99.90
2022-07-28T08:53:37.709Z,99.90
2022-07-28T08:56:07.686Z,99.90
2022-07-28T08:58:37.082Z,99.90
2022-07-28T09:01:10.950Z,99.90
2022-07-28T09:03:40.916Z,99.90
2022-07-28T09:06:11.839Z,99.90
2022-07-28T09:08:43.685Z,99.90
2022-07-28T09:11:11.897Z,99.90
2022-07-28T09:13:43.455Z,99.90
2022-07-28T09:16:18.993Z,99.90
2022-07-28T09:18:47.348Z,99.90
2022-07-28T09:21:16.203Z,99.90
2022-07-28T09:23:45.387Z,99.90
2022-07-28T09:26:14.071Z,99.90
2022-07-28T09:28:50.643Z,99.90
2022-07-28T09:31:21.199Z,99.90
2022-07-28T09:33:58.366Z,99.90
2022-07-28T09:36:27.111Z,99.90
2022-07-28T09:38:56.727Z,99.90
2022-07-28T09:41:31.195Z,99.90
2022-07-28T09:44:07.047Z,99.90
2022-07-28T09:46:45.115Z,99.90
2022-07-28T09:49:28.081Z,99.90
2022-07-28T09:52:06.034Z,99.90
2022-07-28T09:54:40.300Z,99.90
2022-07-28T09:57:15.497Z,99.90
2022-07-28T09:59:52.111Z,99.90
2022-07-28T10:02:32.674Z,99.90
2022-07-28T10:05:02.749Z,99.90
2022-07-28T10:07:31.495Z,99.90
2022-07-28T10:12:59.203Z,99.90
2022-07-28T10:15:56.869Z,99.90
2022-07-28T10:18:26.462Z,99.90
2022-07-28T10:20:54.459Z,99.90
2022-07-28T10:23:26.383Z,99.90
2022-07-28T10:25:56.350Z,99.90
2022-07-28T10:28:24.927Z,99.90
2022-07-28T10:30:56.819Z,99.90
2022-07-28T10:33:30.159Z,99.90
2022-07-28T10:35:59.267Z,99.90
2022-07-28T10:38:30.814Z,99.90
2022-07-28T10:41:02.950Z,99.90
2022-07-28T10:43:32.773Z,99.90
2022-07-28T10:46:06.206Z,99.90
2022-07-28T10:48:38.495Z,99.90
2022-07-28T10:51:07.020Z,99.90
2022-07-28T10:53:42.554Z,99.90
2022-07-28T10:56:17.687Z,99.90
2022-07-28T10:59:04.523Z,99.90
2022-07-28T11:01:53.399Z,99.90
2022-07-28T11:05:03.744Z,99.90
2022-07-28T11:07:41.131Z,99.90
2022-07-28T11:10:51.623Z,99.90
2022-07-28T11:13:28.916Z,99.90
2022-07-28T11:16:22.088Z,99.90
2022-07-28T11:19:36.776Z,99.90
2022-07-28T11:22:33.466Z,99.90
2022-07-28T11:25:22.159Z,99.90
2022-07-28T11:28:01.682Z,99.90
2022-07-28T11:30:57.544Z,99.90
2022-07-28T11:34:16.520Z,99.90
2022-07-28T11:37:05.186Z,99.90
2022-07-28T11:39:42.961Z,99.90
2022-07-28T11:42:37.145Z,99.90
2022-07-28T11:45:37.544Z,99.90
2022-07-28T11:48:20.724Z,99.90
2022-07-28T11:51:15.724Z,99.90
2022-07-28T11:53:47.971Z,99.90
2022-07-28T11:56:23.837Z,99.90
2022-07-28T11:58:58.960Z,99.90
2022-07-28T12:01:31.921Z,99.90
2022-07-28T12:04:18.084Z,99.90
2022-07-28T12:06:53.437Z,99.90
2022-07-28T12:14:07.666Z,99.90
2022-07-28T12:16:41.229Z,99.90
2022-07-28T12:21:59.841Z,99.90
2022-07-28T12:24:30.269Z,99.90
2022-07-28T12:26:59.683Z,99.90
2022-07-28T12:29:36.141Z,99.90
2022-07-28T12:32:10.175Z,99.90
2022-07-28T12:34:40.494Z,99.90
2022-07-28T12:37:10.850Z,99.90
2022-07-28T12:39:46.117Z,99.90
2022-07-28T12:42:16.383Z,99.90
2022-07-28T12:44:48.729Z,99.90
2022-07-28T12:47:27.650Z,99.90
2022-07-28T12:50:14.259Z,99.90
2022-07-28T12:52:43.863Z,99.90
2022-07-28T12:55:26.971Z,99.90
2022-07-28T12:57:55.412Z,99.90
2022-07-28T13:00:30.895Z,99.80
2022-07-28T13:03:24.164Z,99.90
2022-07-28T13:06:04.759Z,99.70
2022-07-28T13:08:44.407Z,99.40
2022-07-28T13:11:42.882Z,99.90
2022-07-28T13:14:06.536Z,99.50
2022-07-28T13:16:39.066Z,99.50
2022-07-28T13:19:10.564Z,99.90
2022-07-28T13:21:56.483Z,99.90
2022-07-28T13:24:27.485Z,99.90
2022-07-28T13:26:55.998Z,99.60
2022-07-28T13:29:24.215Z,99.70
2022-07-28T13:31:55.991Z,99.50
2022-07-28T13:34:28.586Z,99.30
2022-07-28T13:37:07.271Z,99.30
2022-07-28T13:39:37.342Z,99.40
2022-07-28T13:42:13.289Z,98.60
2022-07-28T13:47:44.626Z,98.10
2022-07-28T13:50:18.578Z,98.00
2022-07-28T13:52:48.694Z,98.20
2022-07-28T13:55:22.772Z,98.40
2022-07-28T13:58:25.742Z,98.30
2022-07-28T14:01:13.407Z,98.70
2022-07-28T14:03:57.916Z,98.50
2022-07-28T14:06:29.505Z,98.70
2022-07-28T14:09:07.225Z,98.30
2022-07-28T14:11:50.064Z,97.80
2022-07-28T14:14:25.408Z,97.90
2022-07-28T14:16:58.184Z,98.40
2022-07-28T14:19:39.129Z,98.80
2022-07-28T14:22:17.656Z,99.20
2022-07-28T14:24:46.216Z,98.40
2022-07-28T14:27:14.534Z,98.30
2022-07-28T14:29:45.668Z,98.60
2022-07-28T14:32:14.022Z,98.70
2022-07-28T14:34:43.530Z,99.00
2022-07-28T14:37:15.147Z,98.50
2022-07-28T14:39:50.118Z,98.70
2022-07-28T14:42:18.492Z,98.40
2022-07-28T14:44:49.520Z,98.90
2022-07-28T14:47:20.326Z,99.00
2022-07-28T14:49:57.122Z,99.30
2022-07-28T14:52:31.958Z,99.10
2022-07-28T14:55:00.270Z,98.70
2022-07-28T14:57:48.170Z,99.10
2022-07-28T15:00:23.520Z,99.40
2022-07-28T15:03:00.108Z,99.90
2022-07-28T15:05:32.596Z,99.90
2022-07-28T15:08:03.191Z,99.70
2022-07-28T15:10:31.693Z,99.50
2022-07-28T15:13:18.521Z,99.70
2022-07-28T15:15:47.225Z,99.50
2022-07-28T15:18:15.570Z,99.70
2022-07-28T15:20:44.057Z,99.40
2022-07-28T15:23:17.897Z,99.20
2022-07-28T15:25:48.795Z,98.60
2022-07-28T15:28:19.589Z,98.80
2022-07-28T15:30:54.099Z,99.00
2022-07-28T15:33:28.000Z,98.90
2022-07-28T15:36:08.127Z,99.20
2022-07-28T15:38:41.250Z,98.90
2022-07-28T15:41:12.887Z,98.70
2022-07-28T15:43:41.599Z,99.00
2022-07-28T15:46:12.087Z,98.50
2022-07-28T15:48:45.977Z,98.80
2022-07-28T15:51:14.306Z,98.90
2022-07-28T15:53:58.222Z,99.00
2022-07-28T15:56:29.762Z,99.20
2022-07-28T15:58:58.963Z,99.30
2022-07-28T16:01:28.203Z,99.50
2022-07-28T16:03:57.009Z,98.70
2022-07-28T16:06:26.675Z,98.60
2022-07-28T16:09:02.223Z,98.70
2022-07-28T16:11:30.742Z,99.00
2022-07-28T16:13:58.876Z,98.90
2022-07-28T16:16:27.320Z,99.20
2022-07-28T16:18:59.095Z,99.00
2022-07-28T16:21:28.744Z,99.00
2022-07-28T16:23:58.307Z,99.50
2022-07-28T16:26:27.199Z,99.60
2022-07-28T16:28:56.703Z,99.40
2022-07-28T16:31:25.057Z,99.70
2022-07-28T16:33:53.245Z,99.90
2022-07-28T16:36:21.615Z,99.20
2022-07-28T16:38:52.633Z,99.90
2022-07-28T16:41:23.881Z,99.90
2022-07-28T16:44:12.465Z,99.60
2022-07-28T16:46:41.690Z,99.80
2022-07-28T16:49:18.299Z,99.60
2022-07-28T16:51:57.079Z,99.90
2022-07-28T16:54:27.316Z,99.50
2022-07-28T16:56:57.690Z,99.90
2022-07-28T16:59:36.349Z,99.80
2022-07-28T17:02:06.388Z,99.70
2022-07-28T17:04:34.966Z,99.50
2022-07-28T17:07:05.885Z,99.60
2022-07-28T17:09:34.290Z,99.60
2022-07-28T17:12:04.156Z,99.40
2022-07-28T17:14:34.379Z,99.30
2022-07-28T17:17:10.752Z,99.40
2022-07-28T17:19:46.425Z,99.80
2022-07-28T17:22:15.588Z,99.90
2022-07-28T17:24:43.876Z,99.90
2022-07-28T17:30:02.593Z,99.80
2022-07-28T17:32:31.166Z,99.90
2022-07-28T17:34:59.423Z,99.90
2022-07-28T17:37:32.785Z,99.70
2022-07-28T17:40:04.520Z,99.80
2022-07-28T17:42:40.283Z,99.90
2022-07-28T17:45:11.311Z,99.90
2022-07-28T17:47:39.736Z,99.90
2022-07-28T17:50:13.096Z,99.90
2022-07-28T17:52:41.229Z,99.90
2022-07-28T17:55:27.405Z,99.90
2022-07-28T17:58:12.144Z,99.90
2022-07-28T18:00:44.288Z,99.90
2022-07-28T18:03:12.635Z,99.90
2022-07-28T18:05:45.929Z,99.90
2022-07-28T18:08:17.144Z,99.90
2022-07-28T18:10:49.940Z,99.90
2022-07-28T18:13:19.590Z,99.90
2022-07-28T18:15:49.899Z,99.90
2022-07-28T18:18:21.880Z,99.90
2022-07-28T18:20:51.105Z,99.90
2022-07-28T18:23:19.793Z,99.90
2022-07-28T18:25:51.059Z,99.90
2022-07-28T18:28:25.433Z,99.90
2022-07-28T18:30:53.427Z,99.90
2022-07-28T18:33:23.900Z,99.90
2022-07-28T18:35:52.025Z,99.90
2022-07-28T18:38:23.085Z,99.90
2022-07-28T18:40:54.544Z,99.90
2022-07-28T18:43:23.938Z,99.90
2022-07-28T18:45:52.010Z,99.90
2022-07-28T18:48:20.928Z,99.90
2022-07-28T18:50:49.231Z,99.90
2022-07-28T18:53:17.260Z,99.90
2022-07-28T18:55:45.423Z,99.90
2022-07-28T18:58:13.691Z,99.90
2022-07-28T19:00:45.468Z,99.90
2022-07-28T19:03:13.632Z,99.90
2022-07-28T19:05:45.772Z,99.90
2022-07-28T19:08:14.406Z,99.90
2022-07-28T19:10:42.524Z,99.90
2022-07-28T19:13:13.219Z,99.90
2022-07-28T19:15:43.444Z,99.90
2022-07-28T19:18:12.164Z,99.90
2022-07-28T19:20:40.482Z,99.90
2022-07-28T19:23:08.506Z,99.90
2022-07-28T19:25:37.804Z,99.90
2022-07-28T19:28:08.377Z,99.90
2022-07-28T19:30:36.968Z,99.90
2022-07-28T19:33:06.921Z,99.90
2022-07-28T19:35:37.245Z,99.90
2022-07-28T19:38:17.544Z,99.90
2022-07-28T19:40:55.556Z,99.90
2022-07-28T19:43:26.338Z,99.90
2022-07-28T19:46:19.562Z,99.90
2022-07-28T19:48:58.945Z,99.90
2022-07-28T19:51:29.034Z,99.90
2022-07-28T19:54:09.470Z,99.90
2022-07-28T19:56:39.836Z,99.90
2022-07-28T19:59:19.207Z,99.90
2022-07-28T20:01:59.863Z,99.90
2022-07-28T20:04:49.607Z,99.90
2022-07-28T20:07:48.595Z,99.90
2022-07-28T20:10:41.997Z,99.90
2022-07-28T20:13:34.512Z,99.90
2022-07-28T20:16:06.392Z,99.90
2022-07-28T20:18:34.629Z,99.90
2022-07-28T20:21:04.876Z,99.90
2022-07-28T20:23:52.615Z,99.90
2022-07-28T20:26:25.641Z,99.90
2022-07-28T20:28:59.206Z,99.90
2022-07-28T20:31:30.180Z,99.90
2022-07-28T20:34:01.419Z,99.90
2022-07-28T20:36:36.289Z,99.90
2022-07-28T20:39:27.914Z,99.90
2022-07-28T20:42:15.743Z,99.90
2022-07-28T20:44:49.613Z,99.90
2022-07-28T20:47:24.651Z,99.90
2022-07-28T20:49:58.139Z,99.90
2022-07-28T20:52:34.653Z,99.90
2022-07-28T20:55:08.087Z,99.90
2022-07-28T20:57:36.783Z,99.90
2022-07-28T21:00:06.296Z,99.90
2022-07-28T21:02:37.496Z,99.90
2022-07-28T21:05:24.521Z,99.90
2022-07-28T21:08:06.053Z,99.90
2022-07-28T21:10:38.965Z,99.90
2022-07-28T21:13:12.596Z,99.90
2022-07-28T21:15:42.845Z,99.90
2022-07-28T21:18:13.205Z,99.90
2022-07-28T21:20:45.308Z,99.90
2022-07-28T21:23:14.747Z,99.90
2022-07-28T21:25:45.112Z,99.90
2022-07-28T21:28:31.030Z,99.90
2022-07-28T21:30:59.099Z,99.90
2022-07-28T21:33:27.980Z,99.90
2022-07-28T21:35:57.041Z,99.90
2022-07-28T21:38:26.596Z,99.90
2022-07-28T21:40:54.582Z,99.90
2022-07-28T21:43:22.619Z,99.90
2022-07-28T21:45:50.753Z,99.90
2022-07-28T21:48:20.122Z,99.90
2022-07-28T21:50:48.159Z,99.90
2022-07-28T21:53:17.431Z,99.90
2022-07-28T21:55:48.011Z,99.90
2022-07-28T21:58:16.935Z,99.90
2022-07-28T22:00:44.847Z,99.90
2022-07-28T22:03:12.961Z,99.90
2022-07-28T22:05:41.782Z,99.90
2022-07-28T22:08:09.812Z,99.90
2022-07-28T22:10:37.832Z,99.90
2022-07-28T22:13:07.182Z,99.90
2022-07-28T22:15:35.494Z,99.90
2022-07-28T22:18:03.820Z,99.90
2022-07-28T22:20:31.901Z,99.90
2022-07-28T22:22:59.884Z,99.90
2022-07-28T22:25:27.943Z,99.90
2022-07-28T22:27:55.882Z,99.90
2022-07-28T22:30:25.532Z,99.90
2022-07-28T22:32:53.770Z,99.90
2022-07-28T22:35:21.779Z,99.90
2022-07-28T22:37:50.893Z,99.90
2022-07-28T22:40:19.354Z,99.90
2022-07-28T22:42:48.635Z,99.90
2022-07-28T22:45:16.940Z,99.90
2022-07-28T22:48:07.021Z,99.90
2022-07-28T22:50:35.671Z,99.90
2022-07-28T22:53:03.716Z,99.90
2022-07-28T22:55:31.688Z,99.90
2022-07-28T22:58:04.943Z,99.90
2022-07-28T23:00:33.765Z,99.90
2022-07-28T23:03:06.369Z,99.90
2022-07-28T23:05:35.193Z,99.90
2022-07-28T23:08:03.362Z,99.90
2022-07-28T23:10:34.416Z,99.90
2022-07-28T23:13:02.619Z,99.90
2022-07-28T23:15:39.962Z,99.90
2022-07-28T23:18:11.093Z,99.90
2022-07-28T23:20:39.734Z,99.90
2022-07-28T23:23:08.105Z,99.90
2022-07-28T23:25:40.517Z,99.90
2022-07-28T23:28:08.680Z,99.90
2022-07-28T23:30:36.703Z,99.90
2022-07-28T23:33:05.528Z,99.90
2022-07-28T23:35:35.816Z,99.90
2022-07-28T23:38:04.070Z,99.90
2022-07-28T23:40:32.259Z,99.90
2022-07-28T23:43:00.291Z,99.90
2022-07-28T23:45:28.783Z,99.90
2022-07-28T23:47:58.935Z,99.90
2022-07-28T23:50:27.477Z,99.90
2022-07-28T23:53:00.298Z,99.90
2022-07-28T23:55:28.433Z,99.90
2022-07-28T23:57:56.466Z,99.90
